MSC Federica — HPQE — position and weather

sailwx.info

Track history (hours):
 
Tides and Currents Weather Stations Pressure Air Temp Water Temp Dewpoint Dewpoint Depression Visibility Wind Speed Wind Dir Waves Ship Positions

MSC Federica

Last reported at 2015-Aug-03 14:31 UTC. Time now 2015-Aug-03 15:13 UTC.
Position N 43°59' E 009°52'.

Length 294 m; draft 8.3 m.

Type: Cargo ship. MMSI: 357363000.

Date/timePositionNaut miles runAvg speedWind from/ knotsBaromVisibWave heightAir tempDewpointWater temp
2015-Aug-03 14:31N 43°59' E 009°52'0 0.0
2015-Aug-03 13:31N 43°59' E 009°52'0 0.2
2015-Aug-03 12:31N 43°59' E 009°52'0 0.1
2015-Aug-03 11:31N 43°59' E 009°51'0 0.0
2015-Aug-03 10:31N 43°59' E 009°51'0 0.0
2015-Aug-03 09:31N 43°59' E 009°51'0 0.0
2015-Aug-03 08:31N 43°59' E 009°51'0 0.1
2015-Aug-03 07:31N 43°59' E 009°51'0 0.0
2015-Aug-03 06:31N 43°59' E 009°52'0 0.0
2015-Aug-03 05:31N 43°59' E 009°52'0 0.0
2015-Aug-03 04:31N 43°59' E 009°51'0 0.0
2015-Aug-03 03:31N 43°59' E 009°51'0 0.0
2015-Aug-03 02:31N 43°59' E 009°51'0 0.0
2015-Aug-03 01:31N 43°59' E 009°51'0 0.0
2015-Aug-03 00:31N 43°59' E 009°51'0 0.1
2015-Aug-02 23:31N 43°59' E 009°52'0 0.1
2015-Aug-02 22:31N 43°59' E 009°52'0 0.0
2015-Aug-02 21:31N 43°59' E 009°52'0 0.0
2015-Aug-02 20:31N 43°59' E 009°52'0 0.0
2015-Aug-02 19:31N 43°59' E 009°52'0 0.0
2015-Aug-02 18:31N 43°59' E 009°52'0 0.0
2015-Aug-02 17:31N 43°59' E 009°52'0 0.0
2015-Aug-02 16:28N 43°59' E 009°52'0 0.0
2015-Aug-02 15:31N 43°59' E 009°51'0 0.1
2015-Aug-02 14:31N 43°59' E 009°51'0 0.0
2015-Aug-02 13:31N 43°59' E 009°51'0 0.0
2015-Aug-02 12:31N 43°59' E 009°51'0 0.0
2015-Aug-02 11:31N 43°59' E 009°51'0 0.0
2015-Aug-02 10:31N 43°59' E 009°51'0 0.0
2015-Aug-02 09:31N 43°59' E 009°51'1010.0
2015-Aug-02 08:34N 43°59' E 009°38'1615.6
2015-Aug-02 07:34N 44°05' E 009°18'1615.6
2015-Aug-02 06:33N 44°13' E 008°60'1515.4
2015-Aug-02 05:34N 44°23' E 008°42'4 4.1
2015-Aug-02 04:33N 44°25' E 008°47'0 0.0
2015-Aug-02 03:33N 44°25' E 008°47'0 0.0
2015-Aug-02 02:33N 44°25' E 008°47'0 0.0
2015-Aug-02 01:33N 44°25' E 008°47'0 0.0
2015-Aug-02 00:33N 44°25' E 008°47'0 0.0
2015-Aug-01 23:33N 44°25' E 008°47'0 0.0
2015-Aug-01 22:33N 44°25' E 008°47'0 0.0
2015-Aug-01 21:33N 44°25' E 008°47'3 2.8
2015-Aug-01 20:33N 44°24' E 008°44'2 1.8
2015-Aug-01 19:33N 44°22' E 008°43'2 2.1
2015-Aug-01 18:33N 44°24' E 008°45'4 3.9
2015-Aug-01 17:33N 44°20' E 008°42'1 1.1
2015-Aug-01 16:33N 44°21' E 008°43'1 1.5
2015-Aug-01 15:33N 44°22' E 008°44'2 2.4
2015-Aug-01 14:34N 44°20' E 008°42'4 4.3
2015-Aug-01 13:33N 44°16' E 008°41'0 0.2
2015-Aug-01 12:33N 44°16' E 008°41'0 0.2
2015-Aug-01 11:33N 44°17' E 008°41'0 0.3
2015-Aug-01 10:33N 44°17' E 008°41'0 0.3
2015-Aug-01 09:33N 44°17' E 008°41'1 0.6
2015-Aug-01 08:33N 44°18' E 008°41'0 0.2
2015-Aug-01 07:33N 44°18' E 008°41'0 0.2
2015-Aug-01 06:33N 44°18' E 008°42'1 0.9
2015-Aug-01 05:33N 44°19' E 008°43'6 6.0
2015-Aug-01 04:33N 44°13' E 008°43'1212.2
2015-Aug-01 03:33N 44°00' E 008°41'1212.2
2015-Aug-01 02:33N 43°51' E 008°31'1211.9
2015-Aug-01 01:33N 43°41' E 008°21'1211.9
2015-Aug-01 00:33N 43°31' E 008°12'1211.8
2015-Jul-31 23:33N 43°21' E 008°02'1212.4
2015-Jul-31 22:33N 43°11' E 007°53'1312.8
2015-Jul-31 21:33N 43°01' E 007°42'1312.9
2015-Jul-31 20:33N 42°50' E 007°32'1313.0
2015-Jul-31 19:33N 42°40' E 007°22'1312.8
2015-Jul-31 18:33N 42°29' E 007°12'1312.7
2015-Jul-31 17:33N 42°19' E 007°02'1313.0
2015-Jul-31 16:33N 42°08' E 006°52'1313.3
2015-Jul-31 15:33N 41°57' E 006°42'1413.5
2015-Jul-31 14:33N 41°46' E 006°32'1313.2
2015-Jul-31 13:33N 41°35' E 006°22'1312.8
2015-Jul-31 12:33N 41°24' E 006°13'1312.5
2015-Jul-31 11:29N 41°13' E 006°03'1212.4
2015-Jul-31 10:33N 41°04' E 005°54'1212.2
2015-Jul-31 09:33N 40°54' E 005°45'1212.3
2015-Jul-31 08:33N 40°44' E 005°35'1212.4
2015-Jul-31 07:33N 40°34' E 005°25'4012.5
2015-Jul-31 04:22N 40°02' E 004°54'29613.5
2015-Jul-30 06:29N 37°17' W 000°20'1617.0
2015-Jul-30 05:33N 37°08' W 000°37'3717.4
2015-Jul-30 03:24N 36°49' W 001°16'2117.8
2015-Jul-30 02:12N 36°37' W 001°39'21717.9
2015-Jul-29 14:05N 35°54' W 006°03'1318.4
2015-Jul-29 13:22N 35°54' W 006°19'10217.0
2015-Jul-29 07:22N 35°55' W 008°25'1417.0
2015-Jul-29 06:33N 35°55' W 008°42'1716.7
2015-Jul-29 05:33N 35°56' W 009°02'1716.6
2015-Jul-29 04:33N 35°56' W 009°23'1716.5
2015-Jul-29 03:32N 35°57' W 009°44'1616.0
2015-Jul-29 02:33N 35°57' W 010°03'1616.0
2015-Jul-29 01:33N 35°57' W 010°23'1616.0
2015-Jul-29 00:33N 35°57' W 010°43'50117.3
2015-Jul-27 19:32N 35°47' W 021°01'7218.2
2015-Jul-27 15:33N 35°40' W 022°30'5918.3
2015-Jul-27 12:20N 35°34' W 023°42'1418.4
2015-Jul-27 11:33N 35°32' W 023°59'1918.6
2015-Jul-27 10:32N 35°30' W 024°22'1818.6
2015-Jul-27 09:33N 35°28' W 024°44'1919.0
2015-Jul-27 08:32N 35°26' W 025°08'1818.8
2015-Jul-27 07:34N 35°24' W 025°30'1918.6
2015-Jul-27 06:32N 35°21' W 025°54'1818.8
2015-Jul-27 05:34N 35°19' W 026°16'1918.6
2015-Jul-27 04:33N 35°16' W 026°39'1918.6
2015-Jul-27 03:31N 35°14' W 027°02'1718.1
2015-Jul-27 02:33N 35°11' W 027°23'1818.1
2015-Jul-27 01:33N 35°08' W 027°45'2117.9
2015-Jul-27 00:24N 35°05' W 028°10'3817.7
2015-Jul-26 22:16N 34°59' W 028°55'  
Track history (hours):
 
Tides and Currents Weather Stations Pressure Air Temp Water Temp Dewpoint Dewpoint Depression Visibility Wind Speed Wind Dir Waves Ship Positions

MSC Federica

Last reported at 2015-Aug-03 14:31 UTC. Time now 2015-Aug-03 15:13 UTC.
Position N 43°59' E 009°52'.

Length 294 m; draft 8.3 m.

Type: Cargo ship. MMSI: 357363000.

Date/timePositionNaut miles runAvg speedWind from/ knotsBaromVisibWave heightAir tempDewpointWater temp
2015-Aug-03 14:31N 43°59' E 009°52'0 0.0
2015-Aug-03 13:31N 43°59' E 009°52'0 0.2
2015-Aug-03 12:31N 43°59' E 009°52'0 0.1
2015-Aug-03 11:31N 43°59' E 009°51'0 0.0
2015-Aug-03 10:31N 43°59' E 009°51'0 0.0
2015-Aug-03 09:31N 43°59' E 009°51'0 0.0
2015-Aug-03 08:31N 43°59' E 009°51'0 0.1
2015-Aug-03 07:31N 43°59' E 009°51'0 0.0
2015-Aug-03 06:31N 43°59' E 009°52'0 0.0
2015-Aug-03 05:31N 43°59' E 009°52'0 0.0
2015-Aug-03 04:31N 43°59' E 009°51'0 0.0
2015-Aug-03 03:31N 43°59' E 009°51'0 0.0
2015-Aug-03 02:31N 43°59' E 009°51'0 0.0
2015-Aug-03 01:31N 43°59' E 009°51'0 0.0
2015-Aug-03 00:31N 43°59' E 009°51'0 0.1
2015-Aug-02 23:31N 43°59' E 009°52'0 0.1
2015-Aug-02 22:31N 43°59' E 009°52'0 0.0
2015-Aug-02 21:31N 43°59' E 009°52'0 0.0
2015-Aug-02 20:31N 43°59' E 009°52'0 0.0
2015-Aug-02 19:31N 43°59' E 009°52'0 0.0
2015-Aug-02 18:31N 43°59' E 009°52'0 0.0
2015-Aug-02 17:31N 43°59' E 009°52'0 0.0
2015-Aug-02 16:28N 43°59' E 009°52'0 0.0
2015-Aug-02 15:31N 43°59' E 009°51'0 0.1
2015-Aug-02 14:31N 43°59' E 009°51'0 0.0
2015-Aug-02 13:31N 43°59' E 009°51'0 0.0
2015-Aug-02 12:31N 43°59' E 009°51'0 0.0
2015-Aug-02 11:31N 43°59' E 009°51'0 0.0
2015-Aug-02 10:31N 43°59' E 009°51'0 0.0
2015-Aug-02 09:31N 43°59' E 009°51'1010.0
2015-Aug-02 08:34N 43°59' E 009°38'1615.6
2015-Aug-02 07:34N 44°05' E 009°18'1615.6
2015-Aug-02 06:33N 44°13' E 008°60'1515.4
2015-Aug-02 05:34N 44°23' E 008°42'4 4.1
2015-Aug-02 04:33N 44°25' E 008°47'0 0.0
2015-Aug-02 03:33N 44°25' E 008°47'0 0.0
2015-Aug-02 02:33N 44°25' E 008°47'0 0.0
2015-Aug-02 01:33N 44°25' E 008°47'0 0.0
2015-Aug-02 00:33N 44°25' E 008°47'0 0.0
2015-Aug-01 23:33N 44°25' E 008°47'0 0.0
2015-Aug-01 22:33N 44°25' E 008°47'0 0.0
2015-Aug-01 21:33N 44°25' E 008°47'3 2.8
2015-Aug-01 20:33N 44°24' E 008°44'2 1.8
2015-Aug-01 19:33N 44°22' E 008°43'2 2.1
2015-Aug-01 18:33N 44°24' E 008°45'4 3.9
2015-Aug-01 17:33N 44°20' E 008°42'1 1.1
2015-Aug-01 16:33N 44°21' E 008°43'1 1.5
2015-Aug-01 15:33N 44°22' E 008°44'2 2.4
2015-Aug-01 14:34N 44°20' E 008°42'4 4.3
2015-Aug-01 13:33N 44°16' E 008°41'0 0.2
2015-Aug-01 12:33N 44°16' E 008°41'0 0.2
2015-Aug-01 11:33N 44°17' E 008°41'0 0.3
2015-Aug-01 10:33N 44°17' E 008°41'0 0.3
2015-Aug-01 09:33N 44°17' E 008°41'1 0.6
2015-Aug-01 08:33N 44°18' E 008°41'0 0.2
2015-Aug-01 07:33N 44°18' E 008°41'0 0.2
2015-Aug-01 06:33N 44°18' E 008°42'1 0.9
2015-Aug-01 05:33N 44°19' E 008°43'6 6.0
2015-Aug-01 04:33N 44°13' E 008°43'1212.2
2015-Aug-01 03:33N 44°00' E 008°41'1212.2
2015-Aug-01 02:33N 43°51' E 008°31'1211.9
2015-Aug-01 01:33N 43°41' E 008°21'1211.9
2015-Aug-01 00:33N 43°31' E 008°12'1211.8
2015-Jul-31 23:33N 43°21' E 008°02'1212.4
2015-Jul-31 22:33N 43°11' E 007°53'1312.8
2015-Jul-31 21:33N 43°01' E 007°42'1312.9
2015-Jul-31 20:33N 42°50' E 007°32'1313.0
2015-Jul-31 19:33N 42°40' E 007°22'1312.8
2015-Jul-31 18:33N 42°29' E 007°12'1312.7
2015-Jul-31 17:33N 42°19' E 007°02'1313.0
2015-Jul-31 16:33N 42°08' E 006°52'1313.3
2015-Jul-31 15:33N 41°57' E 006°42'1413.5
2015-Jul-31 14:33N 41°46' E 006°32'1313.2
2015-Jul-31 13:33N 41°35' E 006°22'1312.8
2015-Jul-31 12:33N 41°24' E 006°13'1312.5
2015-Jul-31 11:29N 41°13' E 006°03'1212.4
2015-Jul-31 10:33N 41°04' E 005°54'1212.2
2015-Jul-31 09:33N 40°54' E 005°45'1212.3
2015-Jul-31 08:33N 40°44' E 005°35'1212.4
2015-Jul-31 07:33N 40°34' E 005°25'4012.5
2015-Jul-31 04:22N 40°02' E 004°54'29613.5
2015-Jul-30 06:29N 37°17' W 000°20'1617.0
2015-Jul-30 05:33N 37°08' W 000°37'3717.4
2015-Jul-30 03:24N 36°49' W 001°16'2117.8
2015-Jul-30 02:12N 36°37' W 001°39'21717.9
2015-Jul-29 14:05N 35°54' W 006°03'1318.4
2015-Jul-29 13:22N 35°54' W 006°19'10217.0
2015-Jul-29 07:22N 35°55' W 008°25'1417.0
2015-Jul-29 06:33N 35°55' W 008°42'1716.7
2015-Jul-29 05:33N 35°56' W 009°02'1716.6
2015-Jul-29 04:33N 35°56' W 009°23'1716.5
2015-Jul-29 03:32N 35°57' W 009°44'1616.0
2015-Jul-29 02:33N 35°57' W 010°03'1616.0
2015-Jul-29 01:33N 35°57' W 010°23'1616.0
2015-Jul-29 00:33N 35°57' W 010°43'50117.3
2015-Jul-27 19:32N 35°47' W 021°01'7218.2
2015-Jul-27 15:33N 35°40' W 022°30'5918.3
2015-Jul-27 12:20N 35°34' W 023°42'1418.4
2015-Jul-27 11:33N 35°32' W 023°59'1918.6
2015-Jul-27 10:32N 35°30' W 024°22'1818.6
2015-Jul-27 09:33N 35°28' W 024°44'1919.0
2015-Jul-27 08:32N 35°26' W 025°08'1818.8
2015-Jul-27 07:34N 35°24' W 025°30'1918.6
2015-Jul-27 06:32N 35°21' W 025°54'1818.8
2015-Jul-27 05:34N 35°19' W 026°16'1918.6
2015-Jul-27 04:33N 35°16' W 026°39'1918.6
2015-Jul-27 03:31N 35°14' W 027°02'1718.1
2015-Jul-27 02:33N 35°11' W 027°23'1818.1
2015-Jul-27 01:33N 35°08' W 027°45'2117.9
2015-Jul-27 00:24N 35°05' W 028°10'3817.7
2015-Jul-26 22:16N 34°59' W 028°55'  

Dump ship's entire track history